createdAt,value
2019-03-01T00:02:16.002Z,92.80
2019-03-01T00:09:05.485Z,92.50
2019-03-01T00:15:47.590Z,92.20
2019-03-01T00:19:11.935Z,92.50
2019-03-01T00:25:54.484Z,92.30
2019-03-01T00:29:19.154Z,92.10
2019-03-01T00:35:55.592Z,91.60
2019-03-01T00:42:43.926Z,91.80
2019-03-01T00:49:14.104Z,91.80
2019-03-01T00:52:38.536Z,91.30
2019-03-01T00:59:09.027Z,91.00
2019-03-01T01:02:33.769Z,91.50
2019-03-01T01:09:06.787Z,91.70
2019-03-01T01:15:37.733Z,91.80
2019-03-01T01:19:02.211Z,92.00
2019-03-01T01:25:33.209Z,92.30
2019-03-01T01:28:57.553Z,92.60
2019-03-01T01:35:30.662Z,92.60
2019-03-01T01:42:01.821Z,93.30
2019-03-01T01:44:31.791Z,94.00
2019-03-01T01:51:02.316Z,94.30
2019-03-01T01:54:27.083Z,95.30
2019-03-01T02:00:57.511Z,96.30
2019-03-01T02:04:23.651Z,96.40
2019-03-01T02:10:53.950Z,96.50
2019-03-01T02:17:24.061Z,96.60
2019-03-01T02:20:48.985Z,97.20
2019-03-01T02:27:27.431Z,97.70
2019-03-01T02:30:51.985Z,96.60
2019-03-01T02:37:22.808Z,97.10
2019-03-01T02:40:47.282Z,97.40
2019-03-01T02:47:18.060Z,97.50
2019-03-01T02:53:49.232Z,97.20
2019-03-01T03:00:26.026Z,96.70
2019-03-01T03:06:58.279Z,96.40
2019-03-01T03:13:31.312Z,96.20
2019-03-01T03:16:55.794Z,95.90
2019-03-01T03:23:26.663Z,95.30
2019-03-01T03:26:26.292Z,95.60
2019-03-01T03:32:56.426Z,95.00
2019-03-01T03:36:20.561Z,95.30
2019-03-01T03:42:50.272Z,95.30
2019-03-01T03:46:05.261Z,94.70
2019-03-01T03:48:36.325Z,95.60
2019-03-01T03:55:09.060Z,94.00
2019-03-01T04:01:38.916Z,93.40
2019-03-01T04:08:09.040Z,93.30
2019-03-01T04:11:33.091Z,93.30
2019-03-01T04:18:03.151Z,93.50
2019-03-01T04:20:51.682Z,93.90
2019-03-01T04:27:21.859Z,93.50
2019-03-01T04:30:46.113Z,93.30
2019-03-01T04:37:17.063Z,93.70
2019-03-01T04:43:48.088Z,93.20
2019-03-01T04:46:37.180Z,93.60
2019-03-01T04:49:07.392Z,93.30
2019-03-01T04:55:38.427Z,95.10
2019-03-01T05:02:10.373Z,96.60
2019-03-01T05:08:41.214Z,97.20
2019-03-01T05:12:05.891Z,97.50
2019-03-01T05:18:36.405Z,97.70
2019-03-01T05:22:01.993Z,96.90
2019-03-01T05:28:34.320Z,97.10
2019-03-01T05:31:58.945Z,97.10
2019-03-01T05:38:29.645Z,97.30
2019-03-01T05:41:38.315Z,97.10
2019-03-01T05:48:09.419Z,97.20
2019-03-01T05:54:40.106Z,97.40
2019-03-01T05:58:04.664Z,97.10
2019-03-01T06:04:41.017Z,97.50
2019-03-01T06:08:05.701Z,97.80
2019-03-01T06:15:14.486Z,98.00
2019-03-01T06:21:54.140Z,98.40
2019-03-01T06:25:18.756Z,98.00
2019-03-01T06:32:12.147Z,98.50
2019-03-01T06:35:36.482Z,97.00
2019-03-01T06:42:32.591Z,96.40
2019-03-01T06:45:56.674Z,95.20
2019-03-01T06:52:27.782Z,97.40
2019-03-01T06:55:51.948Z,97.40
2019-03-01T07:02:24.360Z,99.00
2019-03-01T07:08:54.431Z,99.90
2019-03-01T07:12:18.980Z,99.20
2019-03-01T07:18:49.542Z,99.90
2019-03-01T07:25:20.253Z,99.90
2019-03-01T07:31:51.199Z,99.90
2019-03-01T07:38:21.984Z,99.90
2019-03-01T07:41:46.503Z,99.90
2019-03-01T07:48:17.210Z,99.90
2019-03-01T07:51:35.969Z,99.90
2019-03-01T07:54:06.034Z,99.90
2019-03-01T08:00:36.319Z,99.90
2019-03-01T08:07:06.178Z,99.90
2019-03-01T08:10:30.440Z,99.90
2019-03-01T08:17:00.560Z,99.90
2019-03-01T08:23:31.736Z,99.90
2019-03-01T08:26:57.171Z,99.90
2019-03-01T08:33:27.428Z,99.90
2019-03-01T08:36:51.418Z,99.90
2019-03-01T08:43:21.982Z,99.90
2019-03-01T08:46:46.886Z,99.90
2019-03-01T08:53:19.872Z,99.90
2019-03-01T08:59:50.511Z,99.90
2019-03-01T09:06:22.490Z,99.90
2019-03-01T09:12:53.157Z,99.90
2019-03-01T09:16:21.221Z,99.90
2019-03-01T09:22:52.024Z,99.90
2019-03-01T09:29:23.194Z,99.90
2019-03-01T09:32:47.376Z,99.90
2019-03-01T09:39:19.211Z,99.90
2019-03-01T09:42:43.798Z,99.90
2019-03-01T09:49:14.295Z,99.90
2019-03-01T09:52:39.696Z,99.90
2019-03-01T09:55:15.894Z,99.90
2019-03-01T10:01:46.925Z,99.90
2019-03-01T10:05:11.572Z,99.90
2019-03-01T10:11:43.005Z,99.90
2019-03-01T10:15:08.606Z,99.90
2019-03-01T10:21:38.790Z,99.90
2019-03-01T10:25:10.700Z,99.90
2019-03-01T10:31:42.206Z,99.90
2019-03-01T10:38:17.390Z,99.90
2019-03-01T10:41:41.606Z,99.90
2019-03-01T10:48:11.892Z,99.90
2019-03-01T10:54:43.716Z,99.90
2019-03-01T11:01:14.769Z,99.90
2019-03-01T11:07:45.821Z,99.90
2019-03-01T11:14:18.233Z,99.90
2019-03-01T11:16:48.254Z,99.90
2019-03-01T11:23:18.791Z,99.90
2019-03-01T11:29:49.719Z,99.90
2019-03-01T11:33:14.145Z,99.90
2019-03-01T11:39:44.803Z,99.90
2019-03-01T11:43:08.772Z,99.90
2019-03-01T11:49:42.093Z,99.90
2019-03-01T11:53:06.261Z,99.90
2019-03-01T11:55:36.275Z,99.90
2019-03-01T12:02:08.342Z,99.90
2019-03-01T12:08:41.277Z,99.90
2019-03-01T12:15:12.584Z,99.90
2019-03-01T12:18:37.854Z,99.90
2019-03-01T12:25:10.523Z,99.90
2019-03-01T12:28:34.365Z,99.90
2019-03-01T12:35:07.280Z,99.90
2019-03-01T12:38:31.554Z,99.90
2019-03-01T12:45:01.847Z,99.90
2019-03-01T12:51:32.286Z,99.90
2019-03-01T12:58:03.415Z,99.90
2019-03-01T13:04:34.405Z,99.90
2019-03-01T13:11:05.512Z,99.90
2019-03-01T13:17:37.303Z,99.90
2019-03-01T13:24:08.228Z,99.90
2019-03-01T13:27:32.760Z,99.90
2019-03-01T13:34:03.293Z,99.90
2019-03-01T13:40:34.363Z,99.90
2019-03-01T13:44:00.371Z,99.90
2019-03-01T13:50:31.152Z,99.90
2019-03-01T13:53:55.921Z,99.90
2019-03-01T14:00:27.039Z,99.90
2019-03-01T14:06:57.890Z,99.90
2019-03-01T14:10:22.580Z,99.90
2019-03-01T14:16:53.158Z,99.90
2019-03-01T14:23:25.002Z,99.90
2019-03-01T14:26:50.634Z,99.90
2019-03-01T14:33:25.385Z,99.90
2019-03-01T14:36:49.751Z,99.90
2019-03-01T14:43:23.947Z,99.90
2019-03-01T14:45:55.679Z,99.90
2019-03-01T14:49:21.979Z,99.90
2019-03-01T14:56:00.299Z,99.90
2019-03-01T14:59:24.546Z,99.90
2019-03-01T15:02:03.212Z,99.90
2019-03-01T15:08:31.931Z,99.90
2019-03-01T15:15:05.556Z,99.90
2019-03-01T15:21:37.597Z,99.90
2019-03-01T15:28:07.589Z,99.90
2019-03-01T15:34:39.092Z,99.90
2019-03-01T15:41:09.204Z,99.90
2019-03-01T15:44:33.646Z,99.90
2019-03-01T15:51:06.801Z,99.90
2019-03-01T15:57:37.830Z,99.90
2019-03-01T16:04:10.066Z,99.90
2019-03-01T16:10:41.216Z,99.90
2019-03-01T16:17:14.851Z,99.90
2019-03-01T16:20:39.054Z,99.90
2019-03-01T16:27:12.013Z,99.90
2019-03-01T16:33:43.333Z,99.90
2019-03-01T16:40:16.287Z,99.90
2019-03-01T16:46:47.015Z,99.90
2019-03-01T16:50:12.877Z,99.90
2019-03-01T16:56:44.257Z,99.90
2019-03-01T17:03:17.981Z,99.90
2019-03-01T17:05:47.724Z,99.90
2019-03-01T17:12:18.613Z,99.90
2019-03-01T17:15:45.496Z,99.90
2019-03-01T17:22:15.937Z,99.90
2019-03-01T17:28:46.807Z,99.90
2019-03-01T17:32:11.158Z,99.90
2019-03-01T17:38:45.904Z,99.90
2019-03-01T17:42:08.744Z,99.90
2019-03-01T17:48:48.506Z,99.90
2019-03-01T17:55:25.982Z,99.90
2019-03-01T18:01:56.722Z,99.90
2019-03-01T18:08:28.264Z,99.90
2019-03-01T18:11:52.406Z,99.90
2019-03-01T18:18:22.781Z,99.90
2019-03-01T18:24:53.411Z,99.90
2019-03-01T18:31:28.301Z,99.90
2019-03-01T18:37:56.908Z,99.90
2019-03-01T18:41:24.109Z,99.90
2019-03-01T18:47:53.168Z,99.90
2019-03-01T18:51:21.352Z,99.90
2019-03-01T18:57:52.281Z,99.90
2019-03-01T19:01:16.450Z,99.90
2019-03-01T19:07:47.221Z,99.90
2019-03-01T19:10:20.069Z,99.90
2019-03-01T19:16:50.476Z,99.90
2019-03-01T19:23:21.168Z,99.90
2019-03-01T19:29:51.541Z,99.90
2019-03-01T19:36:22.453Z,99.90
2019-03-01T19:42:53.017Z,99.90
2019-03-01T19:49:23.888Z,99.90
2019-03-01T19:52:50.542Z,99.90
2019-03-01T19:59:20.541Z,99.90
2019-03-01T20:02:44.569Z,99.90
2019-03-01T20:09:15.591Z,99.90
2019-03-01T20:15:47.355Z,99.90
2019-03-01T20:22:18.645Z,99.90
2019-03-01T20:28:51.424Z,99.90
2019-03-01T20:32:16.573Z,99.90
2019-03-01T20:38:47.455Z,99.90
2019-03-01T20:45:30.029Z,99.90
2019-03-01T20:48:53.552Z,99.90
2019-03-01T20:55:24.472Z,99.90
2019-03-01T20:58:49.052Z,99.90
2019-03-01T21:05:19.863Z,99.90
2019-03-01T21:11:50.517Z,99.90
2019-03-01T21:18:21.160Z,99.90
2019-03-01T21:24:51.698Z,99.90
2019-03-01T21:31:22.403Z,99.90
2019-03-01T21:37:53.312Z,99.90
2019-03-01T21:44:23.862Z,99.90
2019-03-01T21:47:48.938Z,99.90
2019-03-01T21:54:20.208Z,99.90
2019-03-01T21:57:44.434Z,99.90
2019-03-01T22:04:15.182Z,99.90
2019-03-01T22:07:39.622Z,99.90
2019-03-01T22:14:10.824Z,99.90
2019-03-01T22:20:44.910Z,99.90
2019-03-01T22:24:08.574Z,99.90
2019-03-01T22:30:38.824Z,99.90
2019-03-01T22:37:10.048Z,99.90
2019-03-01T22:43:40.603Z,99.90
2019-03-01T22:50:16.219Z,99.90
2019-03-01T22:53:42.054Z,99.90
2019-03-01T23:00:19.561Z,99.90
2019-03-01T23:03:43.745Z,99.90
2019-03-01T23:10:14.774Z,99.90
2019-03-01T23:13:13.169Z,99.90
2019-03-01T23:15:43.471Z,99.90
2019-03-01T23:22:14.510Z,99.90
2019-03-01T23:28:44.666Z,99.90
2019-03-01T23:35:14.714Z,99.90
2019-03-01T23:38:40.257Z,99.90
2019-03-01T23:45:13.831Z,99.90
2019-03-01T23:48:36.951Z,99.90
2019-03-01T23:55:15.644Z,99.90
2019-03-01T23:57:44.184Z,99.90
